Time;durP1;ratioP1;P1;durP2;ratioP2;P2;SDS_P1;SDS_P2;PMS_P1;PMS_P2;Temp;Humidity;BMP_temperature;BMP_pressure;BME280_temperature;BME280_humidity;BME280_pressure;Samples;Min_cycle;Max_cycle;Signal;HPM_P1;HPM_P2
2024/03/09 00:00:20;;;;;;;14.25;9.82;;;;;;;;;;701493;28;937;-63
2024/03/09 00:00:42;;;;;;;14.77;9.97;;;;;;;;;;701417;28;1198;-63
2024/03/09 00:01:03;;;;;;;15.60;9.68;;;;;;;;;;701661;28;1264;-63
2024/03/09 00:01:26;;;;;;;14.73;9.30;;;;;;;;;;700921;28;2374;-64
2024/03/09 00:01:47;;;;;;;14.52;9.45;;;;;;;;;;701315;28;971;-64
2024/03/09 00:02:07;;;;;;;15.37;10.00;;;;;;;;;;702189;28;972;-63
2024/03/09 00:02:27;;;;;;;13.75;9.60;;;;;;;;;;699296;28;4268;-63
2024/03/09 00:02:49;;;;;;;15.67;9.60;;;;;;;;;;702066;28;778;-63
2024/03/09 00:03:09;;;;;;;14.68;9.75;;;;;;;;;;702189;28;1042;-63
2024/03/09 00:03:30;;;;;;;15.43;9.83;;;;;;;;;;700610;28;1439;-63
2024/03/09 00:03:51;;;;;;;14.37;9.50;;;;;;;;;;700561;28;1914;-63
2024/03/09 00:04:11;;;;;;;14.50;9.52;;;;;;;;;;699821;28;1007;-63
2024/03/09 00:04:31;;;;;;;13.60;9.53;;;;;;;;;;698534;28;1063;-62
2024/03/09 00:04:52;;;;;;;14.68;9.93;;;;;;;;;;699960;28;919;-62
2024/03/09 00:05:12;;;;;;;15.03;9.80;;;;;;;;;;699956;28;1027;-63
2024/03/09 00:05:33;;;;;;;14.38;9.57;;;;;;;;;;697185;28;4399;-61
2024/03/09 00:05:54;;;;;;;13.93;9.60;;;;;;;;;;699021;28;979;-63
2024/03/09 00:06:14;;;;;;;15.95;10.18;;;;;;;;;;699137;28;1021;-63
2024/03/09 00:06:37;;;;;;;15.52;10.32;;;;;;;;;;698420;28;1840;-63
2024/03/09 00:06:57;;;;;;;14.63;9.43;;;;;;;;;;699602;28;1105;-63
2024/03/09 00:07:17;;;;;;;15.00;9.57;;;;;;;;;;699168;28;1918;-63
2024/03/09 00:07:38;;;;;;;14.93;9.70;;;;;;;;;;699011;28;932;-63
2024/03/09 00:08:01;;;;;;;14.50;9.57;;;;;;;;;;699343;28;885;-63
2024/03/09 00:08:21;;;;;;;15.02;10.10;;;;;;;;;;696891;28;4385;-61
2024/03/09 00:08:43;;;;;;;15.00;9.23;;;;;;;;;;698874;28;900;-62
2024/03/09 00:09:04;;;;;;;13.63;9.65;;;;;;;;;;697455;28;1239;-63
2024/03/09 00:09:24;;;;;;;15.15;9.30;;;;;;;;;;695502;28;1479;-63
2024/03/09 00:09:45;;;;;;;14.73;9.50;;;;;;;;;;695634;28;888;-63
2024/03/09 00:10:11;;;;;;;14.37;9.60;;;;;;;;;;697463;28;892;-63
2024/03/09 00:10:31;;;;;;;13.77;9.40;;;;;;;;;;695547;28;1468;-62
2024/03/09 00:10:51;;;;;;;13.97;9.37;;;;;;;;;;698660;28;960;-62
2024/03/09 00:11:12;;;;;;;14.85;9.30;;;;;;;;;;697053;28;1284;-63
2024/03/09 00:11:32;;;;;;;14.40;9.50;;;;;;;;;;696178;28;4335;-64
2024/03/09 00:11:52;;;;;;;14.80;9.60;;;;;;;;;;696270;28;1133;-63
2024/03/09 00:12:14;;;;;;;14.40;9.55;;;;;;;;;;696475;28;1182;-62
2024/03/09 00:12:35;;;;;;;14.18;9.23;;;;;;;;;;696762;28;1513;-63
2024/03/09 00:12:55;;;;;;;15.20;9.40;;;;;;;;;;697889;28;1112;-64
2024/03/09 00:13:16;;;;;;;15.13;9.60;;;;;;;;;;700281;28;1050;-64
2024/03/09 00:13:37;;;;;;;14.57;9.70;;;;;;;;;;699306;28;1073;-63
2024/03/09 00:13:57;;;;;;;14.87;9.67;;;;;;;;;;700197;28;1054;-63
2024/03/09 00:14:17;;;;;;;14.57;9.73;;;;;;;;;;697321;28;4366;-63
2024/03/09 00:14:38;;;;;;;13.27;9.67;;;;;;;;;;699063;28;872;-61
2024/03/09 00:14:58;;;;;;;14.27;9.50;;;;;;;;;;698931;28;1097;-63
2024/03/09 00:15:20;;;;;;;15.60;9.83;;;;;;;;;;698860;28;1821;-62
2024/03/09 00:15:41;;;;;;;14.05;9.65;;;;;;;;;;699001;28;853;-63
2024/03/09 00:16:02;;;;;;;13.15;9.20;;;;;;;;;;698454;28;1120;-63
2024/03/09 00:16:22;;;;;;;14.80;9.35;;;;;;;;;;695290;28;3615;-63
2024/03/09 00:16:43;;;;;;;14.70;9.43;;;;;;;;;;697626;28;971;-62
2024/03/09 00:17:03;;;;;;;15.03;9.73;;;;;;;;;;697848;28;1045;-62
2024/03/09 00:17:24;;;;;;;15.32;9.95;;;;;;;;;;696371;28;4701;-64
2024/03/09 00:17:47;;;;;;;14.47;9.40;;;;;;;;;;698156;28;837;-64
2024/03/09 00:18:07;;;;;;;14.23;9.45;;;;;;;;;;700056;28;1054;-62
2024/03/09 00:18:27;;;;;;;14.13;9.10;;;;;;;;;;697767;28;2082;-64
2024/03/09 00:18:47;;;;;;;14.48;9.77;;;;;;;;;;698742;28;901;-63
2024/03/09 00:19:08;;;;;;;14.27;9.57;;;;;;;;;;699513;28;777;-63
2024/03/09 00:19:29;;;;;;;14.90;9.65;;;;;;;;;;698357;28;1470;-62
2024/03/09 00:19:49;;;;;;;14.32;9.15;;;;;;;;;;700381;28;1098;-63
2024/03/09 00:20:13;;;;;;;15.63;9.97;;;;;;;;;;699709;28;1218;-63
2024/03/09 00:20:36;;;;;;;14.73;9.80;;;;;;;;;;697349;28;4560;-63
2024/03/09 00:20:56;;;;;;;16.15;10.10;;;;;;;;;;698587;28;1103;-62
2024/03/09 00:21:17;;;;;;;15.00;9.93;;;;;;;;;;699136;28;1496;-61
2024/03/09 00:21:37;;;;;;;14.43;9.50;;;;;;;;;;699946;28;959;-65
2024/03/09 00:21:57;;;;;;;15.27;9.50;;;;;;;;;;699430;28;1243;-63
2024/03/09 00:22:19;;;;;;;14.67;9.47;;;;;;;;;;697465;28;1758;-62
2024/03/09 00:22:40;;;;;;;15.48;9.48;;;;;;;;;;698230;28;928;-62
2024/03/09 00:23:00;;;;;;;14.93;9.55;;;;;;;;;;699649;28;1196;-63
2024/03/09 00:23:22;;;;;;;14.65;9.60;;;;;;;;;;698990;28;5197;-64
2024/03/09 00:23:42;;;;;;;14.50;9.68;;;;;;;;;;699827;28;3631;-64
2024/03/09 00:24:04;;;;;;;12.95;9.38;;;;;;;;;;700845;28;1156;-63
2024/03/09 00:24:24;;;;;;;13.98;9.95;;;;;;;;;;698869;28;2426;-63
2024/03/09 00:24:45;;;;;;;15.35;9.73;;;;;;;;;;700808;28;939;-63
2024/03/09 00:25:06;;;;;;;14.40;9.40;;;;;;;;;;698821;28;912;-63
2024/03/09 00:25:28;;;;;;;13.40;9.35;;;;;;;;;;698893;28;1778;-64
2024/03/09 00:25:49;;;;;;;16.17;9.90;;;;;;;;;;698996;28;973;-62
2024/03/09 00:26:09;;;;;;;16.07;9.90;;;;;;;;;;698802;28;919;-63
2024/03/09 00:26:30;;;;;;;15.07;10.10;;;;;;;;;;698425;28;5278;-63
2024/03/09 00:26:50;;;;;;;15.88;9.95;;;;;;;;;;700199;28;1329;-64
2024/03/09 00:27:14;;;;;;;14.90;9.70;;;;;;;;;;699491;28;1090;-63
2024/03/09 00:27:35;;;;;;;14.63;9.65;;;;;;;;;;698886;28;2481;-63
2024/03/09 00:27:56;;;;;;;15.20;9.50;;;;;;;;;;700959;28;1015;-64
2024/03/09 00:28:16;;;;;;;14.25;9.57;;;;;;;;;;700706;28;849;-62
2024/03/09 00:28:40;;;;;;;14.53;9.83;;;;;;;;;;700717;28;1288;-61
2024/03/09 00:29:00;;;;;;;14.70;9.27;;;;;;;;;;699123;28;1217;-63
2024/03/09 00:29:21;;;;;;;14.60;9.35;;;;;;;;;;697353;28;4687;-63
2024/03/09 00:29:41;;;;;;;15.53;9.40;;;;;;;;;;700527;28;864;-62
2024/03/09 00:30:02;;;;;;;15.00;9.40;;;;;;;;;;701071;28;1143;-63
2024/03/09 00:30:24;;;;;;;14.43;9.55;;;;;;;;;;698008;28;1868;-60
2024/03/09 00:30:46;;;;;;;14.73;9.75;;;;;;;;;;698666;28;964;-62
2024/03/09 00:31:07;;;;;;;14.13;9.95;;;;;;;;;;698897;28;1333;-62
2024/03/09 00:31:27;;;;;;;14.07;9.47;;;;;;;;;;698243;28;1776;-62
2024/03/09 00:31:47;;;;;;;14.77;9.85;;;;;;;;;;700030;28;1161;-65
2024/03/09 00:32:08;;;;;;;14.80;9.70;;;;;;;;;;699236;28;1130;-65
2024/03/09 00:32:29;;;;;;;14.80;9.57;;;;;;;;;;697168;28;4309;-62
2024/03/09 00:32:50;;;;;;;14.40;9.27;;;;;;;;;;698138;28;888;-61
2024/03/09 00:33:10;;;;;;;13.75;9.18;;;;;;;;;;699245;28;836;-63
2024/03/09 00:33:31;;;;;;;14.10;9.43;;;;;;;;;;697579;28;2853;-63
2024/03/09 00:33:52;;;;;;;13.63;9.35;;;;;;;;;;700370;28;976;-63
2024/03/09 00:34:12;;;;;;;15.40;9.85;;;;;;;;;;701440;28;1158;-63
2024/03/09 00:34:33;;;;;;;14.53;9.37;;;;;;;;;;697675;28;1477;-63
2024/03/09 00:34:54;;;;;;;14.23;9.57;;;;;;;;;;698530;28;1205;-63
2024/03/09 00:35:14;;;;;;;13.53;9.60;;;;;;;;;;699575;28;4318;-64
2024/03/09 00:35:35;;;;;;;13.38;9.20;;;;;;;;;;698068;28;1821;-64
2024/03/09 00:35:55;;;;;;;13.93;9.50;;;;;;;;;;698620;28;1981;-63
2024/03/09 00:36:17;;;;;;;14.97;9.87;;;;;;;;;;700259;28;1071;-63
2024/03/09 00:36:37;;;;;;;15.10;9.70;;;;;;;;;;698788;28;1691;-63
2024/03/09 00:36:58;;;;;;;15.60;9.63;;;;;;;;;;699736;28;1038;-62
2024/03/09 00:37:18;;;;;;;16.40;10.40;;;;;;;;;;698709;28;1512;-60
2024/03/09 00:37:38;;;;;;;15.80;9.70;;;;;;;;;;699143;28;1290;-62
2024/03/09 00:37:59;;;;;;;14.77;9.30;;;;;;;;;;700722;28;907;-62
2024/03/09 00:38:19;;;;;;;15.13;9.30;;;;;;;;;;697142;28;4354;-63
2024/03/09 00:38:40;;;;;;;15.27;9.40;;;;;;;;;;700231;28;1054;-64
2024/03/09 00:39:01;;;;;;;14.63;9.70;;;;;;;;;;698808;28;1066;-63
2024/03/09 00:39:22;;;;;;;14.20;9.70;;;;;;;;;;699152;28;1903;-61
2024/03/09 00:39:42;;;;;;;14.77;9.35;;;;;;;;;;698671;28;1149;-63
2024/03/09 00:40:04;;;;;;;14.97;9.40;;;;;;;;;;701236;28;1013;-62
2024/03/09 00:40:28;;;;;;;14.43;9.50;;;;;;;;;;698596;28;890;-62
2024/03/09 00:40:48;;;;;;;13.68;9.35;;;;;;;;;;700468;28;1147;-62
2024/03/09 00:41:09;;;;;;;15.03;9.60;;;;;;;;;;699267;28;1392;-62
2024/03/09 00:41:29;;;;;;;16.50;9.85;;;;;;;;;;697412;28;4286;-63
2024/03/09 00:41:50;;;;;;;14.90;9.80;;;;;;;;;;699769;28;1092;-63
2024/03/09 00:42:14;;;;;;;14.30;9.50;;;;;;;;;;699216;28;900;-63
2024/03/09 00:42:38;;;;;;;14.10;9.30;;;;;;;;;;699269;28;2306;-62
2024/03/09 00:43:04;;;;;;;14.23;9.50;;;;;;;;;;700069;28;1442;-59
2024/03/09 00:43:24;;;;;;;14.10;9.50;;;;;;;;;;698300;28;1743;-62
2024/03/09 00:43:46;;;;;;;14.07;9.37;;;;;;;;;;698761;28;1905;-63
2024/03/09 00:44:06;;;;;;;14.43;9.88;;;;;;;;;;698824;28;956;-62
2024/03/09 00:44:26;;;;;;;14.53;9.93;;;;;;;;;;697165;28;4480;-62
2024/03/09 00:44:46;;;;;;;13.70;9.20;;;;;;;;;;700738;28;1261;-61
2024/03/09 00:45:08;;;;;;;14.10;9.60;;;;;;;;;;700469;28;926;-62
2024/03/09 00:45:28;;;;;;;14.07;9.25;;;;;;;;;;698977;28;1552;-62
2024/03/09 00:45:49;;;;;;;13.87;9.37;;;;;;;;;;701544;28;912;-60
2024/03/09 00:46:09;;;;;;;13.73;9.57;;;;;;;;;;701578;28;1332;-61
2024/03/09 00:46:30;;;;;;;13.90;9.52;;;;;;;;;;699767;28;1734;-63
2024/03/09 00:46:50;;;;;;;13.90;9.47;;;;;;;;;;700738;28;927;-62
2024/03/09 00:47:10;;;;;;;15.63;9.80;;;;;;;;;;701221;28;880;-62
2024/03/09 00:47:32;;;;;;;14.90;10.00;;;;;;;;;;699694;27;4461;-62
2024/03/09 00:47:52;;;;;;;14.20;9.50;;;;;;;;;;701378;28;1277;-62
2024/03/09 00:48:13;;;;;;;13.68;9.52;;;;;;;;;;700855;28;943;-60
2024/03/09 00:48:35;;;;;;;13.93;9.13;;;;;;;;;;698514;28;2910;-62
2024/03/09 00:48:55;;;;;;;14.98;9.20;;;;;;;;;;697733;28;916;-62
2024/03/09 00:49:16;;;;;;;14.43;9.00;;;;;;;;;;697108;28;1318;-62
2024/03/09 00:49:36;;;;;;;14.37;9.77;;;;;;;;;;696795;28;1582;-61
2024/03/09 00:49:57;;;;;;;15.37;9.73;;;;;;;;;;696243;28;765;-62
2024/03/09 00:50:17;;;;;;;14.05;9.30;;;;;;;;;;695817;28;4365;-61
2024/03/09 00:50:42;;;;;;;13.40;9.23;;;;;;;;;;697535;28;1646;-62
2024/03/09 00:51:02;;;;;;;14.20;9.50;;;;;;;;;;700920;28;1246;-59
2024/03/09 00:51:22;;;;;;;15.83;9.70;;;;;;;;;;700266;28;2161;-63
2024/03/09 00:51:44;;;;;;;15.05;9.48;;;;;;;;;;701360;28;877;-62
2024/03/09 00:52:05;;;;;;;14.80;9.60;;;;;;;;;;700609;28;963;-61
2024/03/09 00:52:26;;;;;;;14.90;9.98;;;;;;;;;;699458;28;2101;-62
2024/03/09 00:52:46;;;;;;;14.15;9.90;;;;;;;;;;700039;28;1376;-62
2024/03/09 00:53:06;;;;;;;15.00;9.93;;;;;;;;;;700248;28;1377;-61
2024/03/09 00:53:27;;;;;;;14.50;9.33;;;;;;;;;;697812;28;4405;-63
2024/03/09 00:53:47;;;;;;;14.40;9.53;;;;;;;;;;700277;28;1383;-62
2024/03/09 00:54:07;;;;;;;14.33;9.47;;;;;;;;;;701149;28;1399;-61
2024/03/09 00:54:27;;;;;;;15.50;9.67;;;;;;;;;;700476;28;2210;-62
2024/03/09 00:54:48;;;;;;;14.93;9.90;;;;;;;;;;698176;28;983;-62
2024/03/09 00:55:14;;;;;;;13.63;9.10;;;;;;;;;;698289;28;909;-61
2024/03/09 00:55:35;;;;;;;14.43;9.65;;;;;;;;;;698211;28;1808;-61
2024/03/09 00:55:55;;;;;;;14.50;9.38;;;;;;;;;;699816;28;1340;-62
2024/03/09 00:56:16;;;;;;;15.13;9.50;;;;;;;;;;701278;28;4459;-61
2024/03/09 00:56:36;;;;;;;13.88;9.60;;;;;;;;;;698746;28;2279;-62
2024/03/09 00:56:56;;;;;;;14.20;9.50;;;;;;;;;;699808;28;952;-62
2024/03/09 00:57:16;;;;;;;13.97;9.33;;;;;;;;;;699941;28;924;-62
2024/03/09 00:57:37;;;;;;;14.13;9.53;;;;;;;;;;697914;28;1784;-62
2024/03/09 00:57:57;;;;;;;13.77;9.40;;;;;;;;;;699606;28;880;-62
2024/03/09 00:58:21;;;;;;;14.13;9.70;;;;;;;;;;701326;28;1520;-61
2024/03/09 00:58:42;;;;;;;14.40;9.98;;;;;;;;;;700109;28;1038;-62
2024/03/09 00:59:03;;;;;;;15.50;9.48;;;;;;;;;;699763;28;1233;-62
2024/03/09 00:59:23;;;;;;;14.43;9.25;;;;;;;;;;698419;28;4564;-62
2024/03/09 00:59:44;;;;;;;14.75;9.75;;;;;;;;;;699690;28;1084;-61
2024/03/09 01:00:11;;;;;;;14.47;9.83;;;;;;;;;;701120;28;840;-62
2024/03/09 01:00:31;;;;;;;14.85;9.80;;;;;;;;;;698618;28;2268;-59
2024/03/09 01:00:51;;;;;;;14.80;9.47;;;;;;;;;;699306;28;892;-61
2024/03/09 01:01:12;;;;;;;14.00;9.23;;;;;;;;;;699744;28;860;-63
2024/03/09 01:01:33;;;;;;;14.35;9.68;;;;;;;;;;699372;28;1770;-61
2024/03/09 01:01:53;;;;;;;14.07;9.80;;;;;;;;;;700797;28;896;-62
2024/03/09 01:02:13;;;;;;;14.17;9.80;;;;;;;;;;699557;28;1269;-62
2024/03/09 01:02:34;;;;;;;14.60;9.73;;;;;;;;;;698075;28;4365;-62
2024/03/09 01:02:56;;;;;;;14.38;9.90;;;;;;;;;;700141;28;857;-61
2024/03/09 01:03:16;;;;;;;14.40;9.80;;;;;;;;;;700019;28;1342;-62
2024/03/09 01:03:38;;;;;;;13.60;9.40;;;;;;;;;;700576;28;1985;-62
2024/03/09 01:03:59;;;;;;;13.48;9.07;;;;;;;;;;699431;28;1230;-61
2024/03/09 01:04:19;;;;;;;14.23;9.67;;;;;;;;;;699977;28;865;-62
2024/03/09 01:04:40;;;;;;;14.88;10.05;;;;;;;;;;699597;28;924;-62
2024/03/09 01:05:00;;;;;;;15.18;9.90;;;;;;;;;;701452;28;1506;-61
2024/03/09 01:05:22;;;;;;;14.80;9.70;;;;;;;;;;699494;28;4551;-62
2024/03/09 01:05:44;;;;;;;15.38;9.88;;;;;;;;;;699472;28;916;-62
2024/03/09 01:06:05;;;;;;;15.70;9.55;;;;;;;;;;700692;28;869;-62
2024/03/09 01:06:25;;;;;;;16.38;9.95;;;;;;;;;;698339;28;2363;-60
2024/03/09 01:06:45;;;;;;;15.23;10.00;;;;;;;;;;700048;28;1037;-63
2024/03/09 01:07:06;;;;;;;14.40;9.53;;;;;;;;;;701317;28;1206;-63
2024/03/09 01:07:29;;;;;;;14.87;9.70;;;;;;;;;;699156;28;1907;-62
2024/03/09 01:07:49;;;;;;;14.27;9.40;;;;;;;;;;701028;28;1038;-62
2024/03/09 01:08:13;;;;;;;14.37;9.73;;;;;;;;;;700345;28;888;-63
2024/03/09 01:08:34;;;;;;;14.63;9.75;;;;;;;;;;701309;27;4666;-62
2024/03/09 01:08:54;;;;;;;14.05;9.43;;;;;;;;;;704300;28;828;-61
2024/03/09 01:09:15;;;;;;;15.17;9.90;;;;;;;;;;703950;28;945;-62
2024/03/09 01:09:35;;;;;;;13.43;9.53;;;;;;;;;;701013;27;2510;-63
2024/03/09 01:09:55;;;;;;;14.00;9.90;;;;;;;;;;703434;28;1228;-62
2024/03/09 01:10:16;;;;;;;13.93;9.53;;;;;;;;;;702652;28;1313;-61
2024/03/09 01:10:36;;;;;;;14.30;9.65;;;;;;;;;;700876;27;1481;-63
2024/03/09 01:10:57;;;;;;;15.15;9.48;;;;;;;;;;703291;28;793;-62
2024/03/09 01:11:17;;;;;;;15.50;10.00;;;;;;;;;;701887;27;4325;-62
2024/03/09 01:11:38;;;;;;;14.43;9.73;;;;;;;;;;701378;27;940;-63
2024/03/09 01:11:58;;;;;;;13.77;9.37;;;;;;;;;;702696;28;1305;-61
2024/03/09 01:12:18;;;;;;;14.82;10.02;;;;;;;;;;702165;28;1290;-62
2024/03/09 01:12:39;;;;;;;14.80;9.93;;;;;;;;;;702210;28;3907;-62
2024/03/09 01:13:04;;;;;;;15.52;10.13;;;;;;;;;;703071;28;721;-62
2024/03/09 01:13:25;;;;;;;13.70;9.18;;;;;;;;;;701807;27;1852;-63
2024/03/09 01:13:46;;;;;;;14.98;9.55;;;;;;;;;;702303;28;1233;-63
2024/03/09 01:14:06;;;;;;;14.68;9.90;;;;;;;;;;702766;28;808;-62
2024/03/09 01:14:27;;;;;;;15.10;9.77;;;;;;;;;;701094;28;4466;-62
2024/03/09 01:14:48;;;;;;;14.38;9.75;;;;;;;;;;702531;28;1008;-62
2024/03/09 01:15:11;;;;;;;14.90;9.68;;;;;;;;;;703837;28;1025;-62
2024/03/09 01:15:31;;;;;;;14.60;9.35;;;;;;;;;;702999;27;1973;-62
2024/03/09 01:15:52;;;;;;;15.60;9.73;;;;;;;;;;704467;28;963;-63
2024/03/09 01:16:13;;;;;;;16.03;10.40;;;;;;;;;;704537;28;958;-62
2024/03/09 01:16:33;;;;;;;15.93;10.23;;;;;;;;;;700295;27;1766;-62
2024/03/09 01:16:53;;;;;;;17.30;10.38;;;;;;;;;;703545;28;1083;-62
2024/03/09 01:17:17;;;;;;;15.73;9.80;;;;;;;;;;701320;28;4518;-61
2024/03/09 01:17:38;;;;;;;14.65;9.70;;;;;;;;;;699905;28;1800;-61
2024/03/09 01:17:58;;;;;;;13.98;9.73;;;;;;;;;;699656;28;797;-63
2024/03/09 01:18:19;;;;;;;16.33;10.60;;;;;;;;;;703439;28;959;-63
2024/03/09 01:18:40;;;;;;;17.77;10.32;;;;;;;;;;701728;27;1534;-61
2024/03/09 01:19:00;;;;;;;14.93;9.63;;;;;;;;;;704026;28;884;-63
2024/03/09 01:19:20;;;;;;;14.52;9.65;;;;;;;;;;703787;28;860;-64
2024/03/09 01:19:40;;;;;;;14.77;9.50;;;;;;;;;;701858;27;3380;-62
2024/03/09 01:20:01;;;;;;;14.63;9.63;;;;;;;;;;703578;28;5019;-62
2024/03/09 01:20:21;;;;;;;14.18;9.63;;;;;;;;;;700014;27;4270;-62
2024/03/09 01:20:41;;;;;;;14.43;9.50;;;;;;;;;;700266;28;853;-61
2024/03/09 01:21:02;;;;;;;14.77;9.70;;;;;;;;;;700827;28;838;-63
2024/03/09 01:21:22;;;;;;;14.17;9.50;;;;;;;;;;699211;28;1063;-65
2024/03/09 01:21:43;;;;;;;14.90;9.70;;;;;;;;;;701304;28;955;-63
2024/03/09 01:22:05;;;;;;;13.93;9.40;;;;;;;;;;701239;28;1253;-60
2024/03/09 01:22:27;;;;;;;13.60;9.23;;;;;;;;;;702054;27;2390;-62
2024/03/09 01:22:49;;;;;;;13.45;9.18;;;;;;;;;;700546;28;912;-62
2024/03/09 01:23:09;;;;;;;14.02;9.43;;;;;;;;;;700987;28;1235;-63
2024/03/09 01:23:30;;;;;;;13.57;9.30;;;;;;;;;;698760;28;4509;-63
2024/03/09 01:23:51;;;;;;;14.05;9.60;;;;;;;;;;700323;28;1917;-63
2024/03/09 01:24:11;;;;;;;14.50;9.77;;;;;;;;;;700380;28;1463;-61
2024/03/09 01:24:32;;;;;;;14.63;9.77;;;;;;;;;;698281;28;1700;-63
2024/03/09 01:24:52;;;;;;;14.60;9.77;;;;;;;;;;700008;28;869;-61
2024/03/09 01:25:13;;;;;;;14.30;9.70;;;;;;;;;;701234;28;937;-63
2024/03/09 01:25:33;;;;;;;15.20;9.77;;;;;;;;;;698537;28;2266;-62
2024/03/09 01:25:54;;;;;;;14.93;9.53;;;;;;;;;;700734;28;1089;-62
2024/03/09 01:26:14;;;;;;;14.65;9.50;;;;;;;;;;699684;28;4272;-62
2024/03/09 01:26:35;;;;;;;14.80;9.83;;;;;;;;;;699493;28;2003;-62
2024/03/09 01:26:56;;;;;;;14.88;9.60;;;;;;;;;;699889;28;939;-63
2024/03/09 01:27:18;;;;;;;14.70;9.40;;;;;;;;;;700459;28;1229;-62
2024/03/09 01:27:38;;;;;;;14.38;9.82;;;;;;;;;;700304;28;2448;-62
2024/03/09 01:27:58;;;;;;;13.97;9.77;;;;;;;;;;700078;28;952;-62
2024/03/09 01:28:20;;;;;;;13.77;9.53;;;;;;;;;;701232;28;1147;-62
2024/03/09 01:28:41;;;;;;;14.35;9.75;;;;;;;;;;699832;28;1916;-62
2024/03/09 01:29:01;;;;;;;14.73;10.00;;;;;;;;;;695597;28;935;-62
2024/03/09 01:29:23;;;;;;;15.27;9.98;;;;;;;;;;693064;28;4703;-62
2024/03/09 01:29:47;;;;;;;15.45;9.93;;;;;;;;;;692320;28;971;-63
2024/03/09 01:30:09;;;;;;;14.90;9.63;;;;;;;;;;696356;28;999;-61
2024/03/09 01:30:29;;;;;;;13.90;9.57;;;;;;;;;;693899;28;1767;-62
2024/03/09 01:30:49;;;;;;;16.02;10.02;;;;;;;;;;697041;28;1418;-62
2024/03/09 01:31:10;;;;;;;16.00;9.80;;;;;;;;;;699202;28;936;-62
2024/03/09 01:31:32;;;;;;;14.43;9.25;;;;;;;;;;696955;28;995;-63
2024/03/09 01:31:52;;;;;;;14.02;9.45;;;;;;;;;;694829;28;1382;-62
2024/03/09 01:32:13;;;;;;;15.10;10.00;;;;;;;;;;693979;28;5375;-63
2024/03/09 01:32:33;;;;;;;14.55;9.65;;;;;;;;;;692279;28;4368;-62
2024/03/09 01:32:54;;;;;;;14.87;9.60;;;;;;;;;;693916;28;936;-62
2024/03/09 01:33:14;;;;;;;16.10;10.20;;;;;;;;;;696168;28;1641;-62
2024/03/09 01:33:34;;;;;;;14.37;10.03;;;;;;;;;;697388;28;1930;-62
2024/03/09 01:33:55;;;;;;;13.87;9.40;;;;;;;;;;701479;28;919;-62
2024/03/09 01:34:15;;;;;;;13.90;9.27;;;;;;;;;;700133;28;1248;-64
2024/03/09 01:34:35;;;;;;;13.70;9.40;;;;;;;;;;700075;28;1797;-62
2024/03/09 01:34:56;;;;;;;14.47;9.80;;;;;;;;;;700258;28;797;-62
2024/03/09 01:35:16;;;;;;;14.50;9.83;;;;;;;;;;698666;28;4516;-61
2024/03/09 01:35:36;;;;;;;14.75;9.48;;;;;;;;;;698636;28;1726;-62
2024/03/09 01:35:58;;;;;;;12.60;9.00;;;;;;;;;;700142;28;1255;-62
2024/03/09 01:36:18;;;;;;;13.15;8.88;;;;;;;;;;700816;28;955;-61
2024/03/09 01:36:38;;;;;;;15.27;9.82;;;;;;;;;;695934;28;1791;-62
2024/03/09 01:36:58;;;;;;;15.10;9.87;;;;;;;;;;698450;28;1303;-61
2024/03/09 01:37:20;;;;;;;14.80;9.57;;;;;;;;;;700080;28;920;-61
2024/03/09 01:37:40;;;;;;;14.45;9.52;;;;;;;;;;698770;28;1266;-63
2024/03/09 01:38:00;;;;;;;14.53;9.33;;;;;;;;;;700762;28;765;-62
2024/03/09 01:38:22;;;;;;;14.53;9.43;;;;;;;;;;699003;28;4870;-62
2024/03/09 01:38:44;;;;;;;13.93;9.48;;;;;;;;;;699319;28;979;-63
2024/03/09 01:39:04;;;;;;;14.80;10.13;;;;;;;;;;701246;28;1295;-62
2024/03/09 01:39:25;;;;;;;15.00;9.97;;;;;;;;;;700088;28;2328;-61
2024/03/09 01:39:52;;;;;;;14.93;9.45;;;;;;;;;;699602;28;1279;-63
2024/03/09 01:40:13;;;;;;;13.60;9.38;;;;;;;;;;701218;28;1167;-63
2024/03/09 01:40:33;;;;;;;13.65;9.73;;;;;;;;;;696615;28;2209;-61
2024/03/09 01:40:53;;;;;;;16.40;10.63;;;;;;;;;;698136;28;802;-60
2024/03/09 01:41:14;;;;;;;15.88;10.65;;;;;;;;;;697209;28;1446;-62
2024/03/09 01:41:35;;;;;;;14.40;9.60;;;;;;;;;;698539;28;4356;-63
2024/03/09 01:41:55;;;;;;;14.50;9.50;;;;;;;;;;700805;28;1225;-62
2024/03/09 01:42:18;;;;;;;14.87;9.60;;;;;;;;;;698938;28;1720;-63
2024/03/09 01:42:39;;;;;;;13.60;9.50;;;;;;;;;;702805;27;1796;-62
2024/03/09 01:42:59;;;;;;;13.33;9.10;;;;;;;;;;704292;28;1141;-62
2024/03/09 01:43:20;;;;;;;15.25;9.88;;;;;;;;;;704618;28;1002;-63
2024/03/09 01:43:40;;;;;;;15.70;10.48;;;;;;;;;;702117;27;1975;-63
2024/03/09 01:44:00;;;;;;;14.63;9.63;;;;;;;;;;701758;28;1118;-62
2024/03/09 01:44:21;;;;;;;15.23;9.80;;;;;;;;;;702440;28;4571;-61
2024/03/09 01:44:41;;;;;;;14.85;9.75;;;;;;;;;;699046;28;949;-61
2024/03/09 01:45:04;;;;;;;14.73;9.33;;;;;;;;;;699301;28;1059;-62
2024/03/09 01:45:24;;;;;;;14.57;9.63;;;;;;;;;;697981;28;1978;-61
2024/03/09 01:45:44;;;;;;;14.57;10.00;;;;;;;;;;699330;28;809;-62
2024/03/09 01:46:05;;;;;;;14.45;9.60;;;;;;;;;;701034;28;1300;-62
2024/03/09 01:46:25;;;;;;;13.73;9.32;;;;;;;;;;699381;28;2446;-63
2024/03/09 01:46:46;;;;;;;14.00;9.47;;;;;;;;;;699868;28;1261;-63
2024/03/09 01:47:09;;;;;;;14.20;9.77;;;;;;;;;;700553;28;845;-63
2024/03/09 01:47:29;;;;;;;14.02;9.48;;;;;;;;;;697968;28;5181;-63
2024/03/09 01:47:50;;;;;;;13.15;8.82;;;;;;;;;;700729;28;1367;-61
2024/03/09 01:48:12;;;;;;;14.13;9.38;;;;;;;;;;700537;28;817;-62
2024/03/09 01:48:32;;;;;;;15.32;10.02;;;;;;;;;;699382;28;1829;-63
2024/03/09 01:48:53;;;;;;;15.43;10.17;;;;;;;;;;701755;28;797;-61
2024/03/09 01:49:14;;;;;;;15.87;10.20;;;;;;;;;;701617;28;844;-62
2024/03/09 01:49:36;;;;;;;15.43;10.10;;;;;;;;;;699546;28;1760;-62
2024/03/09 01:49:57;;;;;;;14.35;9.20;;;;;;;;;;699020;28;1194;-62
2024/03/09 01:50:19;;;;;;;14.95;9.18;;;;;;;;;;700881;28;5202;-63
2024/03/09 01:50:40;;;;;;;15.10;9.98;;;;;;;;;;699324;28;2298;-61
2024/03/09 01:51:00;;;;;;;15.52;10.38;;;;;;;;;;701676;28;951;-64
2024/03/09 01:51:21;;;;;;;15.80;10.10;;;;;;;;;;699631;28;1015;-61
2024/03/09 01:51:45;;;;;;;15.40;9.55;;;;;;;;;;698666;28;2287;-62
2024/03/09 01:52:07;;;;;;;13.85;9.57;;;;;;;;;;699857;28;818;-62
2024/03/09 01:52:31;;;;;;;14.43;9.50;;;;;;;;;;699901;28;1784;-61
2024/03/09 01:52:52;;;;;;;15.23;9.85;;;;;;;;;;700027;28;864;-62
2024/03/09 01:53:14;;;;;;;13.70;9.20;;;;;;;;;;699430;28;1218;-62
2024/03/09 01:53:37;;;;;;;14.82;9.27;;;;;;;;;;698782;28;4486;-61
2024/03/09 01:53:57;;;;;;;14.48;9.60;;;;;;;;;;700633;28;975;-63
2024/03/09 01:54:23;;;;;;;15.40;9.77;;;;;;;;;;700560;28;873;-62
2024/03/09 01:54:46;;;;;;;14.32;9.45;;;;;;;;;;701024;28;891;-62
2024/03/09 01:55:09;;;;;;;13.80;9.65;;;;;;;;;;699534;28;1128;-62
2024/03/09 01:55:29;;;;;;;15.10;9.80;;;;;;;;;;699134;28;1477;-61
2024/03/09 01:55:50;;;;;;;14.80;9.43;;;;;;;;;;699845;28;817;-63
2024/03/09 01:56:14;;;;;;;14.38;9.75;;;;;;;;;;701167;28;848;-62
2024/03/09 01:56:34;;;;;;;14.75;10.02;;;;;;;;;;698444;28;4698;-63
2024/03/09 01:56:56;;;;;;;15.53;9.83;;;;;;;;;;699704;28;920;-62
2024/03/09 01:57:17;;;;;;;14.25;9.68;;;;;;;;;;699053;28;835;-62
2024/03/09 01:57:38;;;;;;;13.63;9.33;;;;;;;;;;695331;28;1051;-62
2024/03/09 01:57:58;;;;;;;15.63;9.10;;;;;;;;;;696927;28;1305;-62
2024/03/09 01:58:19;;;;;;;14.00;9.07;;;;;;;;;;696434;28;1317;-62
2024/03/09 01:58:41;;;;;;;14.77;9.50;;;;;;;;;;696739;28;1016;-62
2024/03/09 01:59:01;;;;;;;14.68;9.85;;;;;;;;;;697062;28;967;-62
2024/03/09 01:59:21;;;;;;;13.83;10.03;;;;;;;;;;696597;28;4342;-63
2024/03/09 01:59:46;;;;;;;14.70;10.00;;;;;;;;;;697627;28;1118;-62
2024/03/09 02:00:10;;;;;;;13.90;9.40;;;;;;;;;;700041;28;975;-63
2024/03/09 02:00:34;;;;;;;13.40;9.30;;;;;;;;;;698708;28;1329;-63
2024/03/09 02:00:58;;;;;;;13.35;9.05;;;;;;;;;;700890;28;924;-63
2024/03/09 02:01:26;;;;;;;15.93;9.70;;;;;;;;;;698609;28;2130;-62
2024/03/09 02:01:47;;;;;;;14.80;9.15;;;;;;;;;;701325;28;1026;-62
2024/03/09 02:02:09;;;;;;;13.35;9.27;;;;;;;;;;695806;28;1088;-62
2024/03/09 02:02:30;;;;;;;14.15;9.65;;;;;;;;;;696833;28;4416;-64
2024/03/09 02:02:50;;;;;;;14.45;9.35;;;;;;;;;;699200;28;960;-61
2024/03/09 02:03:13;;;;;;;15.30;9.68;;;;;;;;;;702535;28;1344;-63
2024/03/09 02:03:33;;;;;;;14.75;9.48;;;;;;;;;;700197;28;1131;-63
2024/03/09 02:03:54;;;;;;;13.70;9.47;;;;;;;;;;701106;28;1973;-63
2024/03/09 02:04:15;;;;;;;13.88;9.38;;;;;;;;;;700308;28;1004;-62
2024/03/09 02:04:36;;;;;;;14.63;9.20;;;;;;;;;;697121;28;1145;-62
2024/03/09 02:04:57;;;;;;;15.82;9.93;;;;;;;;;;696907;28;1014;-62
2024/03/09 02:05:18;;;;;;;15.25;9.88;;;;;;;;;;697350;28;4382;-62
2024/03/09 02:05:39;;;;;;;13.67;9.43;;;;;;;;;;699431;28;1088;-61
2024/03/09 02:05:59;;;;;;;15.25;9.77;;;;;;;;;;699704;28;831;-62
2024/03/09 02:06:21;;;;;;;14.77;9.67;;;;;;;;;;702251;28;781;-61
2024/03/09 02:06:41;;;;;;;15.77;10.00;;;;;;;;;;700846;28;1114;-62
2024/03/09 02:07:02;;;;;;;14.20;9.75;;;;;;;;;;699887;28;849;-63
2024/03/09 02:07:22;;;;;;;14.18;9.98;;;;;;;;;;699850;28;868;-62
2024/03/09 02:07:45;;;;;;;14.93;9.57;;;;;;;;;;699219;28;1178;-61
2024/03/09 02:08:07;;;;;;;16.00;10.00;;;;;;;;;;701099;28;896;-62
2024/03/09 02:08:30;;;;;;;15.23;9.50;;;;;;;;;;700784;28;4421;-62
2024/03/09 02:08:51;;;;;;;14.70;9.77;;;;;;;;;;702675;28;3608;-60